Time;durP1;ratioP1;P1;durP2;ratioP2;P2;SDS_P1;SDS_P2;PMS_P1;PMS_P2;Temp;Humidity;BMP_temperature;BMP_pressure;BME280_temperature;BME280_humidity;BME280_pressure;Samples;Min_cycle;Max_cycle;Signal;HPM_P1;HPM_P2
2021/05/05 00:00:59;;;;;;;0.77;0.70;;;;;;;6.11;100.00;91914.22;2104161;28;20679;-84
2021/05/05 00:02:00;;;;;;;1.23;0.65;;;;;;;6.08;100.00;91908.97;2098252;28;20079;-86
2021/05/05 00:03:00;;;;;;;1.75;1.00;;;;;;;6.09;100.00;91916.50;2098095;28;20508;-85
2021/05/05 00:04:01;;;;;;;0.60;0.60;;;;;;;6.10;100.00;91906.66;2098258;28;20111;-86
2021/05/05 00:05:02;;;;;;;0.50;0.50;;;;;;;6.08;100.00;91928.28;2106678;28;20047;-87
2021/05/05 00:06:03;;;;;;;0.50;0.50;;;;;;;6.19;100.00;91926.16;2112869;28;20024;-87
2021/05/05 00:07:04;;;;;;;1.40;0.52;;;;;;;6.04;100.00;91930.28;2098210;28;20470;-85
2021/05/05 00:08:05;;;;;;;1.13;0.50;;;;;;;6.02;100.00;91937.94;2089956;28;20091;-86
2021/05/05 00:09:06;;;;;;;0.50;0.50;;;;;;;5.96;100.00;91928.97;2098045;28;20354;-86
2021/05/05 00:10:07;;;;;;;0.40;0.40;;;;;;;5.92;100.00;91937.00;2096454;28;20070;-84
2021/05/05 00:11:08;;;;;;;1.60;0.50;;;;;;;5.92;100.00;91931.69;2090079;28;20063;-86
2021/05/05 00:12:09;;;;;;;0.57;0.40;;;;;;;5.88;100.00;91931.00;2100304;28;20363;-87
2021/05/05 00:13:10;;;;;;;1.25;0.40;;;;;;;5.86;100.00;91940.53;2106559;28;20061;-85
2021/05/05 00:14:13;;;;;;;0.30;0.30;;;;;;;5.81;100.00;91939.13;2115149;28;20027;-85
2021/05/05 00:15:20;;;;;;;0.30;0.30;;;;;;;5.75;100.00;91928.28;2106493;28;20479;-86
2021/05/05 00:16:21;;;;;;;0.20;0.20;;;;;;;5.74;100.00;91939.28;2088437;28;20021;-85
2021/05/05 00:17:22;;;;;;;0.82;0.30;;;;;;;5.73;100.00;91933.25;2086087;28;20025;-85
2021/05/05 00:18:22;;;;;;;0.20;0.20;;;;;;;5.81;100.00;91936.47;2102362;28;20507;-87
2021/05/05 00:19:23;;;;;;;0.22;0.22;;;;;;;5.76;100.00;91929.03;2106452;28;20077;-85
2021/05/05 00:20:24;;;;;;;0.20;0.20;;;;;;;5.72;100.00;91941.63;2092486;28;20115;-86
2021/05/05 00:21:25;;;;;;;0.20;0.20;;;;;;;5.63;100.00;91936.16;2091377;28;20056;-85
2021/05/05 00:22:26;;;;;;;0.65;0.20;;;;;;;5.56;100.00;91931.72;2089762;28;20056;-87
2021/05/05 00:23:27;;;;;;;0.20;0.20;;;;;;;5.51;100.00;91929.56;2098284;28;20066;-85
2021/05/05 00:24:27;;;;;;;0.20;0.20;;;;;;;5.52;100.00;91934.47;2102185;28;20394;-88
2021/05/05 00:25:28;;;;;;;0.20;0.20;;;;;;;5.42;100.00;91934.69;2093923;28;20100;-84
2021/05/05 00:26:30;;;;;;;0.10;0.10;;;;;;;5.41;100.00;91923.34;2089840;28;20473;-85
2021/05/05 00:27:30;;;;;;;0.10;0.10;;;;;;;5.38;100.00;91923.44;2090202;28;20028;-86
2021/05/05 00:28:31;;;;;;;0.17;0.17;;;;;;;5.27;100.00;91918.38;2101493;28;20110;-85
2021/05/05 00:29:32;;;;;;;0.10;0.10;;;;;;;5.26;100.00;91914.22;2098257;28;20029;-84
2021/05/05 00:30:33;;;;;;;0.20;0.20;;;;;;;5.31;100.00;91924.31;2098106;28;20497;-86
2021/05/05 00:31:34;;;;;;;0.10;0.10;;;;;;;5.32;100.00;91915.22;2105781;28;20024;-87
2021/05/05 00:32:34;;;;;;;0.20;0.20;;;;;;;5.32;100.00;91914.50;2098165;28;20135;-85
2021/05/05 00:33:35;;;;;;;0.10;0.10;;;;;;;5.32;100.00;91925.09;2097469;28;20024;-86
2021/05/05 00:34:36;;;;;;;0.10;0.10;;;;;;;5.28;100.00;91917.22;2090462;28;20020;-84
2021/05/05 00:35:37;;;;;;;0.10;0.10;;;;;;;5.22;100.00;91916.97;2081320;28;20554;-84
2021/05/05 00:36:38;;;;;;;0.10;0.10;;;;;;;5.20;100.00;91913.97;2098310;28;20078;-87
2021/05/05 00:37:38;;;;;;;0.15;0.10;;;;;;;5.32;100.00;91909.94;2092106;28;20036;-86
2021/05/05 00:38:39;;;;;;;0.10;0.10;;;;;;;5.34;100.00;91909.50;2083826;28;20029;-87
2021/05/05 00:39:40;;;;;;;0.20;0.20;;;;;;;5.33;100.00;91921.28;2097171;28;20070;-84
2021/05/05 00:40:40;;;;;;;0.10;0.10;;;;;;;5.27;100.00;91910.44;2099740;28;20032;-85
2021/05/05 00:41:41;;;;;;;0.38;0.10;;;;;;;5.22;100.00;91914.31;2088871;28;20029;-86
2021/05/05 00:42:42;;;;;;;0.10;0.10;;;;;;;5.20;100.00;91913.97;2087731;28;20029;-86
2021/05/05 00:43:43;;;;;;;0.10;0.10;;;;;;;5.24;100.00;91908.59;2101759;28;20063;-85
2021/05/05 00:44:44;;;;;;;0.13;0.13;;;;;;;5.19;100.00;91898.50;2103184;28;20515;-86
2021/05/05 00:45:44;;;;;;;0.10;0.10;;;;;;;5.19;100.00;91895.84;2084705;28;20026;-85
2021/05/05 00:46:45;;;;;;;0.10;0.10;;;;;;;5.14;100.00;91898.97;2092222;28;20029;-85
2021/05/05 00:47:46;;;;;;;0.10;0.10;;;;;;;5.13;100.00;91900.84;2098274;28;20024;-87
2021/05/05 00:48:47;;;;;;;0.20;0.20;;;;;;;5.11;100.00;91895.22;2098175;28;20491;-86
2021/05/05 00:49:48;;;;;;;0.73;0.13;;;;;;;5.12;100.00;91894.06;2114877;28;20124;-84
2021/05/05 00:50:48;;;;;;;0.13;0.13;;;;;;;5.13;100.00;91887.59;2102423;28;20489;-83
2021/05/05 00:51:49;;;;;;;0.20;0.20;;;;;;;5.19;100.00;91885.97;2089646;28;20394;-85
2021/05/05 00:52:50;;;;;;;0.10;0.10;;;;;;;5.17;100.00;91882.97;2089739;28;20017;-85
2021/05/05 00:53:51;;;;;;;0.10;0.10;;;;;;;5.12;100.00;91883.47;2089634;28;20021;-85
2021/05/05 00:54:52;;;;;;;0.13;0.13;;;;;;;5.10;100.00;91885.81;2089661;28;20021;-86
2021/05/05 00:55:53;;;;;;;0.10;0.10;;;;;;;5.10;100.00;91895.66;2097554;28;20024;-85
2021/05/05 00:56:54;;;;;;;0.10;0.10;;;;;;;5.17;100.00;91890.19;2094511;28;20036;-85
2021/05/05 00:57:55;;;;;;;0.30;0.20;;;;;;;5.16;100.00;91888.69;2089668;28;20028;-85
2021/05/05 00:58:56;;;;;;;0.45;0.25;;;;;;;5.15;100.00;91889.88;2097721;28;20077;-86
2021/05/05 00:59:57;;;;;;;0.20;0.20;;;;;;;5.14;100.00;91889.13;2106269;28;20035;-86
2021/05/05 01:00:57;;;;;;;0.10;0.10;;;;;;;5.24;100.00;91895.34;2100430;28;20639;-86
2021/05/05 01:01:58;;;;;;;0.10;0.10;;;;;;;5.27;100.00;91899.81;2089667;28;20100;-84
2021/05/05 01:02:59;;;;;;;0.10;0.10;;;;;;;5.27;100.00;91894.53;2093517;28;20024;-84
2021/05/05 01:03:59;;;;;;;0.10;0.10;;;;;;;5.34;100.00;91889.06;2097873;28;20025;-85
2021/05/05 01:05:01;;;;;;;0.10;0.10;;;;;;;5.26;100.00;91893.75;2101229;28;20122;-86
2021/05/05 01:06:03;;;;;;;0.17;0.17;;;;;;;5.26;100.00;91898.31;2105824;28;20023;-86
2021/05/05 01:07:04;;;;;;;0.10;0.10;;;;;;;5.18;100.00;91904.91;2097817;28;20025;-87
2021/05/05 01:08:06;;;;;;;0.20;0.20;;;;;;;5.22;100.00;91901.06;2087707;28;20718;-87
2021/05/05 01:09:07;;;;;;;0.20;0.20;;;;;;;5.18;100.00;91894.31;2094400;28;20136;-86
2021/05/05 01:10:12;;;;;;;1.65;0.20;;;;;;;5.17;100.00;91898.88;2093692;28;20017;-86
2021/05/05 01:11:16;;;;;;;0.10;0.10;;;;;;;5.25;100.00;91896.81;2095158;28;20025;-86
2021/05/05 01:12:17;;;;;;;0.20;0.20;;;;;;;5.20;100.00;91890.13;2103332;28;20059;-86
2021/05/05 01:13:17;;;;;;;0.15;0.15;;;;;;;5.10;100.00;91893.00;2101109;28;20020;-87
2021/05/05 01:14:18;;;;;;;0.20;0.20;;;;;;;5.09;100.00;91891.50;2104797;28;20056;-86
2021/05/05 01:15:19;;;;;;;0.52;0.20;;;;;;;5.05;100.00;91892.34;2105737;28;20020;-86
2021/05/05 01:16:20;;;;;;;1.00;0.20;;;;;;;5.02;100.00;91889.75;2097894;28;20043;-86
2021/05/05 01:17:20;;;;;;;4.03;0.20;;;;;;;5.04;100.00;91885.53;2097776;28;20028;-87
2021/05/05 01:18:21;;;;;;;0.28;0.10;;;;;;;5.01;100.00;91883.72;2106048;28;20024;-86
2021/05/05 01:19:22;;;;;;;1.45;0.10;;;;;;;5.00;100.00;91890.16;2114355;28;20055;-86
2021/05/05 01:20:26;;;;;;;0.20;0.10;;;;;;;5.00;100.00;91889.41;2097599;28;20024;-85
2021/05/05 01:21:27;;;;;;;2.10;0.20;;;;;;;5.01;100.00;91893.56;2094958;28;20025;-83
2021/05/05 01:22:28;;;;;;;0.45;0.45;;;;;;;5.08;100.00;91887.34;2103219;28;20024;-85
2021/05/05 01:23:29;;;;;;;1.50;0.10;;;;;;;5.02;100.00;91885.19;2095771;28;20020;-86
2021/05/05 01:24:33;;;;;;;0.20;0.20;;;;;;;5.11;100.00;91878.59;2091350;28;20025;-84
2021/05/05 01:25:34;;;;;;;0.10;0.10;;;;;;;5.17;100.00;91879.59;2098423;28;20028;-88
2021/05/05 01:26:35;;;;;;;0.10;0.10;;;;;;;5.17;100.00;91882.25;2114386;28;20388;-86
2021/05/05 01:27:36;;;;;;;0.10;0.10;;;;;;;5.14;100.00;91880.44;2106519;28;20028;-86
2021/05/05 01:28:42;;;;;;;0.30;0.20;;;;;;;5.13;100.00;91877.00;2106930;28;20035;-86
2021/05/05 01:29:45;;;;;;;0.40;0.28;;;;;;;5.15;100.00;91869.41;2098206;28;20485;-85
2021/05/05 01:30:47;;;;;;;0.90;0.25;;;;;;;5.12;100.00;91877.44;2089967;28;20029;-85
2021/05/05 01:31:48;;;;;;;0.20;0.20;;;;;;;5.22;100.00;91874.56;2082513;28;20029;-85
2021/05/05 01:32:50;;;;;;;3.25;0.20;;;;;;;5.20;100.00;91876.88;2103788;28;20035;-84
2021/05/05 01:33:51;;;;;;;0.13;0.13;;;;;;;5.19;100.00;91872.00;2105999;28;20032;-85
2021/05/05 01:34:52;;;;;;;0.35;0.20;;;;;;;5.12;100.00;91872.88;2091400;28;20029;-84
2021/05/05 01:35:53;;;;;;;0.40;0.20;;;;;;;5.08;100.00;91874.84;2099416;28;20493;-86
2021/05/05 01:36:54;;;;;;;0.47;0.10;;;;;;;5.08;100.00;91874.84;2089208;28;20032;-85
2021/05/05 01:37:55;;;;;;;0.82;0.20;;;;;;;5.17;100.00;91877.69;2094183;28;20020;-87
2021/05/05 01:38:56;;;;;;;0.10;0.10;;;;;;;5.21;100.00;91874.97;2097312;28;20474;-87
2021/05/05 01:39:57;;;;;;;0.20;0.20;;;;;;;5.13;100.00;91870.97;2097564;28;20020;-82
2021/05/05 01:40:57;;;;;;;0.20;0.20;;;;;;;5.16;100.00;91870.16;2097536;28;20025;-84
2021/05/05 01:41:58;;;;;;;0.10;0.10;;;;;;;5.09;100.00;91873.69;2105841;28;20075;-86
2021/05/05 01:43:00;;;;;;;0.10;0.10;;;;;;;5.06;100.00;91866.59;2109805;28;20084;-86
2021/05/05 01:44:01;;;;;;;0.17;0.17;;;;;;;5.13;100.00;91873.63;2092220;28;20028;-84
2021/05/05 01:45:02;;;;;;;0.20;0.20;;;;;;;4.97;100.00;91875.09;2089695;28;20021;-84
2021/05/05 01:46:04;;;;;;;0.15;0.15;;;;;;;4.95;100.00;91874.00;2101233;28;20024;-85
2021/05/05 01:47:08;;;;;;;0.10;0.10;;;;;;;4.84;100.00;91876.13;2097526;28;20055;-83
2021/05/05 01:48:10;;;;;;;0.20;0.20;;;;;;;4.76;100.00;91883.47;2103635;28;20106;-85
2021/05/05 01:49:19;;;;;;;0.98;0.20;;;;;;;4.87;100.00;91888.53;2100128;28;20052;-87
2021/05/05 01:50:20;;;;;;;0.20;0.20;;;;;;;4.66;100.00;91877.25;2090767;28;20029;-85
2021/05/05 01:51:21;;;;;;;0.25;0.20;;;;;;;4.64;100.00;91887.47;2095939;28;20111;-84
2021/05/05 01:52:21;;;;;;;0.30;0.20;;;;;;;4.68;100.00;91890.06;2095420;28;20028;-85
2021/05/05 01:53:22;;;;;;;0.40;0.15;;;;;;;4.76;100.00;91881.56;2096582;28;20111;-85
2021/05/05 01:54:24;;;;;;;0.30;0.20;;;;;;;4.64;100.00;91884.81;2097420;28;20024;-86
2021/05/05 01:55:25;;;;;;;0.30;0.20;;;;;;;4.54;100.00;91880.50;2089615;28;20032;-86
2021/05/05 01:56:25;;;;;;;0.95;0.25;;;;;;;4.51;100.00;91882.03;2097135;28;20040;-84
2021/05/05 01:57:30;;;;;;;0.30;0.25;;;;;;;4.44;100.00;91876.91;2106398;28;20028;-87
2021/05/05 01:58:33;;;;;;;0.20;0.20;;;;;;;4.35;100.00;91881.25;2098006;28;20496;-86
2021/05/05 01:59:33;;;;;;;0.20;0.20;;;;;;;4.31;100.00;91880.56;2103065;28;20476;-82
2021/05/05 02:00:34;;;;;;;0.20;0.20;;;;;;;4.28;100.00;91882.09;2105724;28;20028;-86
2021/05/05 02:01:35;;;;;;;1.25;0.30;;;;;;;4.33;100.00;91875.59;2097230;28;20021;-85
2021/05/05 02:02:36;;;;;;;0.50;0.45;;;;;;;4.34;100.00;91871.78;2105550;28;20030;-86
2021/05/05 02:03:36;;;;;;;0.20;0.20;;;;;;;4.34;100.00;91877.09;2094711;28;20591;-83
2021/05/05 02:04:37;;;;;;;0.85;0.30;;;;;;;4.31;100.00;91876.00;2090553;28;20061;-84
2021/05/05 02:05:38;;;;;;;0.30;0.30;;;;;;;4.22;100.00;91881.09;2080660;28;20040;-85
2021/05/05 02:06:38;;;;;;;0.43;0.20;;;;;;;4.21;100.00;91872.41;2097511;28;20029;-84
2021/05/05 02:07:40;;;;;;;0.40;0.20;;;;;;;4.23;100.00;91872.00;2093886;28;20029;-86
2021/05/05 02:08:41;;;;;;;0.68;0.28;;;;;;;4.19;100.00;91873.97;2084391;28;20154;-84
2021/05/05 02:09:42;;;;;;;0.20;0.20;;;;;;;4.20;100.00;91862.97;2089098;28;20025;-85
2021/05/05 02:10:45;;;;;;;0.20;0.20;;;;;;;4.13;100.00;91854.44;2090417;28;20027;-84
2021/05/05 02:11:46;;;;;;;0.20;0.20;;;;;;;4.11;100.00;91862.03;2094223;28;20071;-83
2021/05/05 02:12:50;;;;;;;0.30;0.30;;;;;;;4.13;100.00;91854.44;2093463;28;20021;-85
2021/05/05 02:13:52;;;;;;;0.30;0.30;;;;;;;4.12;100.00;91871.44;2089899;28;20029;-83
2021/05/05 02:14:52;;;;;;;0.20;0.20;;;;;;;4.10;100.00;91884.34;2089010;28;20017;-85
2021/05/05 02:15:53;;;;;;;1.90;0.22;;;;;;;4.09;100.00;91888.13;2084033;28;20122;-85
2021/05/05 02:16:55;;;;;;;0.10;0.10;;;;;;;3.99;100.00;91890.53;2100440;28;20469;-86
2021/05/05 02:17:56;;;;;;;0.60;0.20;;;;;;;4.04;100.00;91890.09;2092290;28;20111;-85
2021/05/05 02:18:57;;;;;;;0.20;0.20;;;;;;;4.09;100.00;91893.41;2092120;28;20027;-84
2021/05/05 02:19:58;;;;;;;0.55;0.28;;;;;;;4.01;100.00;91903.34;2089188;28;20036;-84
2021/05/05 02:20:59;;;;;;;0.47;0.30;;;;;;;4.01;100.00;91906.75;2101413;28;20055;-83
2021/05/05 02:21:59;;;;;;;0.20;0.20;;;;;;;3.95;100.00;91905.72;2103024;28;20031;-86
2021/05/05 02:23:00;;;;;;;0.20;0.20;;;;;;;3.92;100.00;91906.53;2097999;28;20031;-84
2021/05/05 02:24:02;;;;;;;0.20;0.20;;;;;;;3.80;100.00;91896.53;2086864;28;20120;-84
2021/05/05 02:25:04;;;;;;;0.45;0.20;;;;;;;3.89;100.00;91901.28;2084832;28;20056;-85
2021/05/05 02:26:04;;;;;;;2.30;0.22;;;;;;;3.80;100.00;91899.16;2092438;28;20021;-85
2021/05/05 02:27:06;;;;;;;0.10;0.10;;;;;;;3.74;100.00;91901.53;2097102;28;20063;-84
2021/05/05 02:28:07;;;;;;;0.20;0.20;;;;;;;3.77;100.00;91905.25;2097101;28;20032;-84
2021/05/05 02:29:08;;;;;;;0.20;0.20;;;;;;;3.74;100.00;91903.44;2088911;28;20421;-86
2021/05/05 02:30:10;;;;;;;0.22;0.22;;;;;;;3.74;100.00;91898.88;2097489;28;20020;-88
2021/05/05 02:31:11;;;;;;;0.10;0.10;;;;;;;3.65;100.00;91892.63;2096739;28;20114;-87
2021/05/05 02:32:15;;;;;;;0.20;0.20;;;;;;;3.52;100.00;91895.81;2088999;28;20028;-85
2021/05/05 02:33:16;;;;;;;0.52;0.25;;;;;;;3.55;100.00;91904.84;2089369;28;20052;-84
2021/05/05 02:34:17;;;;;;;0.20;0.20;;;;;;;3.52;100.00;91911.69;2089122;28;20024;-85
2021/05/05 02:35:19;;;;;;;0.20;0.20;;;;;;;3.49;100.00;91915.13;2087181;28;20024;-86
2021/05/05 02:36:19;;;;;;;0.20;0.20;;;;;;;3.49;100.00;91912.47;2076790;28;20119;-86
2021/05/05 02:37:20;;;;;;;0.28;0.28;;;;;;;3.47;100.00;91911.38;2080885;28;20037;-85
2021/05/05 02:38:21;;;;;;;0.35;0.22;;;;;;;3.40;100.00;91911.47;2104143;28;20028;-85
2021/05/05 02:39:22;;;;;;;0.20;0.20;;;;;;;3.39;100.00;91908.09;2091705;28;20466;-85
2021/05/05 02:40:23;;;;;;;0.63;0.20;;;;;;;3.34;100.00;91900.63;2084400;28;20123;-83
2021/05/05 02:41:24;;;;;;;0.20;0.20;;;;;;;3.37;100.00;91905.09;2094260;28;20027;-86
2021/05/05 02:42:25;;;;;;;0.40;0.30;;;;;;;3.22;100.00;91901.19;2089084;28;20056;-87
2021/05/05 02:43:25;;;;;;;0.30;0.30;;;;;;;3.23;100.00;91897.38;2082717;28;20026;-84
2021/05/05 02:44:26;;;;;;;0.38;0.30;;;;;;;3.24;100.00;91904.16;2092837;28;20056;-83
2021/05/05 02:45:26;;;;;;;0.20;0.20;;;;;;;3.16;100.00;91894.84;2097341;28;20090;-86
2021/05/05 02:46:27;;;;;;;0.30;0.30;;;;;;;3.17;100.00;91889.16;2096335;28;20036;-84
2021/05/05 02:47:28;;;;;;;0.93;0.30;;;;;;;3.11;100.00;91887.38;2096600;28;20052;-85
2021/05/05 02:48:28;;;;;;;0.28;0.22;;;;;;;3.07;100.00;91876.09;2088863;28;20342;-85
2021/05/05 02:49:31;;;;;;;0.30;0.30;;;;;;;3.12;100.00;91879.06;2092991;28;20449;-83
2021/05/05 02:50:31;;;;;;;0.90;0.30;;;;;;;3.16;100.00;91889.56;2089181;28;20497;-86
2021/05/05 02:51:32;;;;;;;0.32;0.28;;;;;;;3.15;100.00;91880.88;2085306;28;20032;-86
2021/05/05 02:52:33;;;;;;;0.60;0.30;;;;;;;3.19;100.00;91889.50;2090461;28;20678;-82
2021/05/05 02:53:34;;;;;;;0.30;0.30;;;;;;;3.06;100.00;91883.28;2086903;28;20559;-82
2021/05/05 02:54:35;;;;;;;0.47;0.17;;;;;;;2.86;100.00;91882.44;2075118;28;20093;-86
2021/05/05 02:55:35;;;;;;;0.77;0.32;;;;;;;2.98;100.00;91897.72;2094425;28;20025;-84
2021/05/05 02:56:36;;;;;;;0.73;0.47;;;;;;;2.95;100.00;91898.53;2088914;28;20025;-83
2021/05/05 02:57:38;;;;;;;1.35;0.30;;;;;;;2.88;100.00;91909.16;2089493;28;20556;-86
2021/05/05 02:58:38;;;;;;;0.25;0.25;;;;;;;2.87;100.00;91908.41;2083781;28;20028;-86
2021/05/05 02:59:39;;;;;;;0.32;0.20;;;;;;;2.84;100.00;91917.13;2095063;28;20611;-84
2021/05/05 03:00:40;;;;;;;0.20;0.20;;;;;;;2.82;100.00;91914.13;2103398;28;20025;-86
2021/05/05 03:01:40;;;;;;;1.17;0.30;;;;;;;2.86;100.00;91914.84;2105678;28;20057;-83
2021/05/05 03:02:41;;;;;;;2.00;0.43;;;;;;;2.87;100.00;91918.22;2095798;28;20135;-86
2021/05/05 03:03:42;;;;;;;0.38;0.30;;;;;;;2.91;100.00;91908.38;2090196;28;20025;-85
2021/05/05 03:04:42;;;;;;;0.82;0.40;;;;;;;2.97;100.00;91901.50;2096793;28;20047;-85
2021/05/05 03:05:43;;;;;;;0.35;0.25;;;;;;;2.96;100.00;91905.28;2090762;28;20104;-85
2021/05/05 03:06:44;;;;;;;0.40;0.30;;;;;;;2.77;100.00;91896.88;2091846;28;20025;-84
2021/05/05 03:07:45;;;;;;;0.20;0.20;;;;;;;2.78;100.00;91905.53;2089236;28;20537;-85
2021/05/05 03:08:46;;;;;;;0.30;0.30;;;;;;;2.86;100.00;91904.28;2105793;28;20031;-86
2021/05/05 03:09:46;;;;;;;0.85;0.30;;;;;;;2.82;100.00;91900.94;2105602;28;20021;-86
2021/05/05 03:10:47;;;;;;;0.20;0.20;;;;;;;2.85;100.00;91902.78;2090679;28;20052;-84
2021/05/05 03:11:52;;;;;;;0.50;0.30;;;;;;;2.82;100.00;91911.50;2099013;28;20390;-86
2021/05/05 03:12:53;;;;;;;0.43;0.30;;;;;;;2.79;100.00;91914.94;2091684;28;20473;-85
2021/05/05 03:13:54;;;;;;;0.20;0.20;;;;;;;2.76;100.00;91905.91;2098932;28;20024;-87
2021/05/05 03:14:54;;;;;;;0.30;0.30;;;;;;;2.84;100.00;91905.81;2098732;28;20025;-86
2021/05/05 03:15:55;;;;;;;0.55;0.30;;;;;;;2.73;100.00;91903.31;2111689;28;20035;-84
2021/05/05 03:16:57;;;;;;;1.10;0.20;;;;;;;2.70;100.00;91909.38;2108169;28;20069;-86
2021/05/05 03:17:58;;;;;;;0.20;0.20;;;;;;;2.72;100.00;91899.94;2107242;28;20043;-82
2021/05/05 03:18:59;;;;;;;0.22;0.22;;;;;;;2.87;100.00;91899.75;2110392;28;20102;-84
2021/05/05 03:19:59;;;;;;;0.32;0.20;;;;;;;2.93;100.00;91901.53;2098574;28;20020;-86
2021/05/05 03:21:00;;;;;;;0.30;0.30;;;;;;;2.90;100.00;91896.34;2098770;28;20099;-85
2021/05/05 03:22:01;;;;;;;1.92;0.30;;;;;;;2.92;100.00;91892.13;2098418;28;20024;-84
2021/05/05 03:23:02;;;;;;;1.20;0.20;;;;;;;2.83;100.00;91906.97;2096739;28;20020;-85
2021/05/05 03:24:03;;;;;;;0.90;0.30;;;;;;;2.73;100.00;91901.44;2098503;28;20147;-85
2021/05/05 03:25:06;;;;;;;0.28;0.20;;;;;;;2.63;100.00;91896.28;2082099;28;20028;-86
2021/05/05 03:26:07;;;;;;;0.20;0.20;;;;;;;2.70;100.00;91898.84;2087570;28;20025;-85
2021/05/05 03:27:08;;;;;;;0.20;0.20;;;;;;;2.60;100.00;91897.81;2083827;28;20021;-84
2021/05/05 03:28:09;;;;;;;0.30;0.30;;;;;;;2.69;100.00;91894.69;2089954;28;20029;-81
2021/05/05 03:29:10;;;;;;;1.70;0.30;;;;;;;2.50;100.00;91901.31;2106913;28;20027;-83
2021/05/05 03:30:11;;;;;;;0.30;0.30;;;;;;;2.45;100.00;91899.84;2107193;28;20020;-85
2021/05/05 03:31:12;;;;;;;0.28;0.22;;;;;;;2.55;100.00;91894.84;2098661;28;20031;-84
2021/05/05 03:32:12;;;;;;;0.30;0.30;;;;;;;2.47;100.00;91902.88;2098590;28;20028;-83
2021/05/05 03:33:13;;;;;;;0.20;0.20;;;;;;;2.23;100.00;91907.25;2090271;28;20215;-85
2021/05/05 03:34:15;;;;;;;0.22;0.22;;;;;;;2.33;100.00;91910.16;2090073;28;20051;-85
2021/05/05 03:35:15;;;;;;;0.20;0.20;;;;;;;2.31;100.00;91902.66;2091076;28;20103;-87
2021/05/05 03:36:16;;;;;;;3.10;0.28;;;;;;;2.27;100.00;91907.97;2098444;28;20052;-86
2021/05/05 03:37:17;;;;;;;0.55;0.25;;;;;;;2.13;100.00;91910.00;2098578;28;20050;-84
2021/05/05 03:38:17;;;;;;;0.60;0.25;;;;;;;2.13;100.00;91918.66;2098671;28;20374;-84
2021/05/05 03:39:18;;;;;;;1.20;0.30;;;;;;;2.16;100.00;91922.41;2106462;28;20563;-86
2021/05/05 03:40:19;;;;;;;0.30;0.30;;;;;;;2.27;100.00;91923.03;2105861;28;20438;-87
2021/05/05 03:41:20;;;;;;;1.65;0.25;;;;;;;2.12;100.00;91926.97;2106978;28;20031;-85
2021/05/05 03:42:21;;;;;;;2.40;0.35;;;;;;;2.12;100.00;91924.31;2090204;28;20397;-85
2021/05/05 03:43:22;;;;;;;0.30;0.30;;;;;;;2.14;100.00;91933.31;2098539;28;20052;-83
2021/05/05 03:44:22;;;;;;;1.30;0.25;;;;;;;2.05;100.00;91927.03;2106804;28;20024;-84
2021/05/05 03:45:23;;;;;;;0.20;0.20;;;;;;;2.15;100.00;91931.44;2098405;28;20025;-86
2021/05/05 03:46:25;;;;;;;0.22;0.22;;;;;;;1.91;100.00;91928.66;2090418;28;20074;-84
2021/05/05 03:47:25;;;;;;;3.63;0.30;;;;;;;1.86;100.00;91928.31;2099908;28;20923;-84
2021/05/05 03:48:26;;;;;;;0.30;0.30;;;;;;;1.94;100.00;91938.41;2098486;28;20046;-85
2021/05/05 03:49:27;;;;;;;1.45;0.40;;;;;;;1.92;100.00;91938.03;2090090;28;20111;-85
2021/05/05 03:50:27;;;;;;;0.30;0.30;;;;;;;1.93;100.00;91942.19;2082128;28;20031;-85
2021/05/05 03:51:28;;;;;;;0.35;0.35;;;;;;;1.92;100.00;91939.94;2094487;28;20473;-84
2021/05/05 03:52:29;;;;;;;0.20;0.20;;;;;;;1.76;100.00;91945.72;2106259;28;20028;-87
2021/05/05 03:53:30;;;;;;;0.20;0.20;;;;;;;1.69;100.00;91945.75;2098435;28;20027;-86
2021/05/05 03:54:31;;;;;;;0.40;0.20;;;;;;;1.69;100.00;91953.66;2090124;28;20079;-85
2021/05/05 03:55:31;;;;;;;0.73;0.40;;;;;;;1.92;100.00;91938.03;2090480;28;20617;-83
2021/05/05 03:56:32;;;;;;;0.20;0.20;;;;;;;1.80;100.00;91943.81;2104345;28;20032;-85
2021/05/05 03:57:33;;;;;;;0.80;0.22;;;;;;;1.61;100.00;91944.31;2091099;28;20032;-84
2021/05/05 03:58:33;;;;;;;0.50;0.20;;;;;;;1.72;100.00;91951.00;2091166;28;20379;-84
2021/05/05 03:59:35;;;;;;;0.35;0.35;;;;;;;1.58;100.00;91951.13;2106669;28;20127;-85
2021/05/05 04:00:35;;;;;;;0.20;0.20;;;;;;;1.61;100.00;91949.59;2098347;28;20071;-86
2021/05/05 04:01:36;;;;;;;0.85;0.20;;;;;;;1.66;100.00;91938.63;2090050;28;20056;-86
2021/05/05 04:02:37;;;;;;;1.27;0.40;;;;;;;1.71;100.00;91946.88;2091806;28;20657;-81
2021/05/05 04:03:37;;;;;;;2.67;0.20;;;;;;;1.68;100.00;91949.53;2106087;28;20074;-87
2021/05/05 04:04:38;;;;;;;0.70;0.30;;;;;;;1.58;100.00;91945.84;2106506;28;20189;-84
2021/05/05 04:05:39;;;;;;;0.43;0.30;;;;;;;1.42;100.00;91946.34;2098179;28;20054;-83
2021/05/05 04:06:40;;;;;;;0.55;0.30;;;;;;;1.44;100.00;91944.03;2092029;28;20382;-84
2021/05/05 04:07:40;;;;;;;0.30;0.30;;;;;;;1.38;100.00;91936.97;2106607;28;20030;-86
2021/05/05 04:08:41;;;;;;;0.75;0.22;;;;;;;1.49;100.00;91942.88;2108049;28;20495;-86
2021/05/05 04:09:42;;;;;;;0.20;0.20;;;;;;;1.37;100.00;91946.75;2102645;28;20028;-86
2021/05/05 04:10:43;;;;;;;0.82;0.30;;;;;;;1.37;100.00;91946.75;2104424;28;20020;-86
2021/05/05 04:11:44;;;;;;;0.73;0.60;;;;;;;1.40;100.00;91945.22;2103579;28;20086;-83
2021/05/05 04:12:44;;;;;;;0.30;0.30;;;;;;;1.39;100.00;91955.00;2098097;28;20047;-84
2021/05/05 04:13:45;;;;;;;0.40;0.30;;;;;;;1.32;100.00;91964.81;2088938;28;20111;-88
2021/05/05 04:14:46;;;;;;;0.30;0.30;;;;;;;1.30;100.00;91964.47;2098394;28;20035;-83
2021/05/05 04:15:46;;;;;;;0.80;0.43;;;;;;;1.39;100.00;91949.72;2092928;28;20029;-83
2021/05/05 04:16:47;;;;;;;0.82;0.80;;;;;;;1.48;100.00;91944.78;2089941;28;20105;-83
2021/05/05 04:17:48;;;;;;;3.40;1.35;;;;;;;1.51;100.00;91954.53;2098255;28;20070;-84
2021/05/05 04:18:49;;;;;;;1.10;0.65;;;;;;;1.48;100.00;91955.31;2103225;28;20050;-85
2021/05/05 04:19:54;;;;;;;0.50;0.50;;;;;;;1.48;100.00;91965.84;2089949;28;20107;-83
2021/05/05 04:21:00;;;;;;;0.20;0.20;;;;;;;1.39;100.00;91970.03;2093159;28;20036;-86
2021/05/05 04:22:03;;;;;;;0.65;0.20;;;;;;;1.50;100.00;91955.69;2095158;28;20017;-86
2021/05/05 04:23:04;;;;;;;0.30;0.30;;;;;;;1.49;100.00;91956.81;2106653;28;20153;-85
2021/05/05 04:24:06;;;;;;;1.20;0.30;;;;;;;1.44;100.00;91959.09;2098211;28;20074;-86
2021/05/05 04:25:07;;;;;;;0.30;0.30;;;;;;;1.43;100.00;91954.97;2103753;28;20500;-84
2021/05/05 04:26:09;;;;;;;0.30;0.30;;;;;;;1.38;100.00;91956.13;2095167;28;20047;-83
2021/05/05 04:27:10;;;;;;;0.40;0.30;;;;;;;1.51;100.00;91959.06;2084927;28;20795;-85
2021/05/05 04:28:10;;;;;;;0.50;0.32;;;;;;;1.44;100.00;91959.84;2089511;28;20081;-83
2021/05/05 04:29:11;;;;;;;0.30;0.30;;;;;;;1.56;100.00;91971.81;2098106;28;20024;-84
2021/05/05 04:30:18;;;;;;;0.20;0.20;;;;;;;1.61;100.00;91971.41;2098154;28;20072;-85
2021/05/05 04:31:19;;;;;;;0.30;0.30;;;;;;;1.51;100.00;91953.78;2089732;28;20025;-85
2021/05/05 04:32:20;;;;;;;0.55;0.30;;;;;;;1.39;100.00;91952.34;2090256;28;20024;-85
2021/05/05 04:33:20;;;;;;;0.30;0.30;;;;;;;1.42;100.00;91946.34;2082049;28;20053;-86
2021/05/05 04:34:21;;;;;;;0.30;0.30;;;;;;;1.50;100.00;91960.94;2088866;28;20112;-84
2021/05/05 04:35:22;;;;;;;0.40;0.40;;;;;;;1.45;100.00;91956.09;2092027;28;20115;-86
2021/05/05 04:36:23;;;;;;;0.40;0.40;;;;;;;1.47;100.00;91964.34;2086145;28;20025;-84
2021/05/05 04:37:24;;;;;;;1.00;0.40;;;;;;;1.60;100.00;91964.63;2106559;28;20016;-85
2021/05/05 04:38:24;;;;;;;0.30;0.30;;;;;;;1.60;100.00;91977.81;2097895;28;20020;-86
2021/05/05 04:39:25;;;;;;;0.30;0.30;;;;;;;1.62;100.00;91972.88;2097795;28;20040;-86
2021/05/05 04:40:26;;;;;;;0.85;0.43;;;;;;;1.67;100.00;91974.38;2104858;28;20480;-83
2021/05/05 04:41:26;;;;;;;1.50;1.40;;;;;;;1.62;100.00;91970.25;2087770;28;20020;-85
2021/05/05 04:42:27;;;;;;;0.93;0.60;;;;;;;1.69;100.00;91964.19;2081513;28;20041;-86
2021/05/05 04:43:28;;;;;;;0.30;0.30;;;;;;;1.75;100.00;91968.66;2103198;28;20028;-86
2021/05/05 04:44:28;;;;;;;0.40;0.40;;;;;;;1.77;100.00;91963.75;2108923;28;20039;-86
2021/05/05 04:45:29;;;;;;;0.43;0.40;;;;;;;1.84;100.00;91973.47;2097784;28;20032;-86
2021/05/05 04:46:30;;;;;;;1.10;1.00;;;;;;;1.90;100.00;91966.69;2091442;28;20047;-87
2021/05/05 04:47:33;;;;;;;1.17;1.10;;;;;;;1.93;100.00;91971.19;2098095;28;20408;-85
2021/05/05 04:48:34;;;;;;;0.98;0.88;;;;;;;1.92;100.00;91976.81;2098077;28;20028;-86